sensor_id;sensor_type;location;lat;lon;timestamp;P1;durP1;ratioP1;P2;durP2;ratioP2
52494;SDS011;38405;53.212;5.660;2023-07-31T00:00:14;6.82;;;1.55;;
52494;SDS011;38405;53.212;5.660;2023-07-31T00:02:41;5.38;;;1.83;;
52494;SDS011;38405;53.212;5.660;2023-07-31T00:05:08;7.10;;;1.85;;
52494;SDS011;38405;53.212;5.660;2023-07-31T00:07:34;7.07;;;1.70;;
52494;SDS011;38405;53.212;5.660;2023-07-31T00:09:59;5.63;;;1.65;;
52494;SDS011;38405;53.212;5.660;2023-07-31T00:12:25;7.65;;;1.83;;
52494;SDS011;38405;53.212;5.660;2023-07-31T00:14:51;8.13;;;2.13;;
52494;SDS011;38405;53.212;5.660;2023-07-31T00:17:17;7.22;;;1.45;;
52494;SDS011;38405;53.212;5.660;2023-07-31T00:19:43;6.07;;;1.55;;
52494;SDS011;38405;53.212;5.660;2023-07-31T00:22:11;10.63;;;1.92;;
52494;SDS011;38405;53.212;5.660;2023-07-31T00:24:37;10.77;;;1.63;;
52494;SDS011;38405;53.212;5.660;2023-07-31T00:27:02;6.68;;;1.67;;
52494;SDS011;38405;53.212;5.660;2023-07-31T00:29:28;7.68;;;1.58;;
52494;SDS011;38405;53.212;5.660;2023-07-31T00:31:54;3.38;;;1.50;;
52494;SDS011;38405;53.212;5.660;2023-07-31T00:34:19;5.82;;;2.05;;
52494;SDS011;38405;53.212;5.660;2023-07-31T00:36:45;5.85;;;1.70;;
52494;SDS011;38405;53.212;5.660;2023-07-31T00:39:11;7.38;;;1.77;;
52494;SDS011;38405;53.212;5.660;2023-07-31T00:41:36;5.32;;;1.65;;
52494;SDS011;38405;53.212;5.660;2023-07-31T00:44:02;8.15;;;1.67;;
52494;SDS011;38405;53.212;5.660;2023-07-31T00:46:28;5.18;;;1.50;;
52494;SDS011;38405;53.212;5.660;2023-07-31T00:48:53;4.93;;;1.73;;
52494;SDS011;38405;53.212;5.660;2023-07-31T00:51:19;5.70;;;2.00;;
52494;SDS011;38405;53.212;5.660;2023-07-31T00:53:45;3.78;;;1.52;;
52494;SDS011;38405;53.212;5.660;2023-07-31T00:56:12;10.52;;;1.50;;
52494;SDS011;38405;53.212;5.660;2023-07-31T00:58:38;8.15;;;1.67;;
52494;SDS011;38405;53.212;5.660;2023-07-31T01:01:04;5.75;;;1.38;;
52494;SDS011;38405;53.212;5.660;2023-07-31T01:03:30;6.57;;;1.75;;
52494;SDS011;38405;53.212;5.660;2023-07-31T01:08:48;7.30;;;1.75;;
52494;SDS011;38405;53.212;5.660;2023-07-31T01:11:27;4.43;;;1.40;;
52494;SDS011;38405;53.212;5.660;2023-07-31T01:13:58;5.40;;;1.70;;
52494;SDS011;38405;53.212;5.660;2023-07-31T01:16:25;10.65;;;1.92;;
52494;SDS011;38405;53.212;5.660;2023-07-31T01:18:51;11.48;;;1.70;;
52494;SDS011;38405;53.212;5.660;2023-07-31T01:26:36;6.35;;;1.77;;
52494;SDS011;38405;53.212;5.660;2023-07-31T01:31:35;7.00;;;1.60;;
52494;SDS011;38405;53.212;5.660;2023-07-31T01:34:01;6.07;;;1.40;;
52494;SDS011;38405;53.212;5.660;2023-07-31T01:36:28;8.25;;;1.73;;
52494;SDS011;38405;53.212;5.660;2023-07-31T01:38:59;6.93;;;1.85;;
52494;SDS011;38405;53.212;5.660;2023-07-31T01:41:25;5.80;;;1.67;;
52494;SDS011;38405;53.212;5.660;2023-07-31T01:43:51;4.38;;;1.58;;
52494;SDS011;38405;53.212;5.660;2023-07-31T01:46:17;7.60;;;1.63;;
52494;SDS011;38405;53.212;5.660;2023-07-31T01:48:42;5.63;;;1.50;;
52494;SDS011;38405;53.212;5.660;2023-07-31T01:51:08;7.72;;;1.55;;
52494;SDS011;38405;53.212;5.660;2023-07-31T01:53:34;5.63;;;1.90;;
52494;SDS011;38405;53.212;5.660;2023-07-31T01:55:59;5.78;;;1.83;;
52494;SDS011;38405;53.212;5.660;2023-07-31T01:58:25;4.22;;;1.27;;
52494;SDS011;38405;53.212;5.660;2023-07-31T02:00:51;4.32;;;1.60;;
52494;SDS011;38405;53.212;5.660;2023-07-31T02:03:16;8.40;;;1.33;;
52494;SDS011;38405;53.212;5.660;2023-07-31T02:05:45;6.80;;;1.75;;
52494;SDS011;38405;53.212;5.660;2023-07-31T02:08:12;7.32;;;1.77;;
52494;SDS011;38405;53.212;5.660;2023-07-31T02:10:38;3.80;;;1.58;;
52494;SDS011;38405;53.212;5.660;2023-07-31T02:13:04;4.55;;;1.40;;
52494;SDS011;38405;53.212;5.660;2023-07-31T02:15:30;4.47;;;1.48;;
52494;SDS011;38405;53.212;5.660;2023-07-31T02:17:56;3.83;;;1.30;;
52494;SDS011;38405;53.212;5.660;2023-07-31T02:20:22;6.07;;;1.77;;
52494;SDS011;38405;53.212;5.660;2023-07-31T02:22:48;6.53;;;1.70;;
52494;SDS011;38405;53.212;5.660;2023-07-31T02:25:13;3.92;;;1.58;;
52494;SDS011;38405;53.212;5.660;2023-07-31T02:27:39;6.00;;;1.40;;
52494;SDS011;38405;53.212;5.660;2023-07-31T02:30:05;5.65;;;1.30;;
52494;SDS011;38405;53.212;5.660;2023-07-31T02:32:31;4.75;;;1.35;;
52494;SDS011;38405;53.212;5.660;2023-07-31T02:34:57;11.43;;;1.55;;
52494;SDS011;38405;53.212;5.660;2023-07-31T02:37:23;6.47;;;1.67;;
52494;SDS011;38405;53.212;5.660;2023-07-31T02:39:49;6.32;;;1.45;;
52494;SDS011;38405;53.212;5.660;2023-07-31T02:42:14;8.20;;;1.38;;
52494;SDS011;38405;53.212;5.660;2023-07-31T02:44:40;5.82;;;1.75;;
52494;SDS011;38405;53.212;5.660;2023-07-31T02:47:06;4.35;;;1.50;;
52494;SDS011;38405;53.212;5.660;2023-07-31T02:49:31;4.13;;;1.45;;
52494;SDS011;38405;53.212;5.660;2023-07-31T02:51:57;2.00;;;1.23;;
52494;SDS011;38405;53.212;5.660;2023-07-31T02:54:23;3.42;;;1.42;;
52494;SDS011;38405;53.212;5.660;2023-07-31T02:56:48;4.00;;;1.70;;
52494;SDS011;38405;53.212;5.660;2023-07-31T02:59:14;5.40;;;1.60;;
52494;SDS011;38405;53.212;5.660;2023-07-31T03:01:40;4.75;;;1.73;;
52494;SDS011;38405;53.212;5.660;2023-07-31T03:04:05;4.25;;;1.65;;
52494;SDS011;38405;53.212;5.660;2023-07-31T03:06:31;3.10;;;1.15;;
52494;SDS011;38405;53.212;5.660;2023-07-31T03:08:57;4.88;;;1.50;;
52494;SDS011;38405;53.212;5.660;2023-07-31T03:11:23;4.32;;;1.05;;
52494;SDS011;38405;53.212;5.660;2023-07-31T03:13:48;2.60;;;0.85;;
52494;SDS011;38405;53.212;5.660;2023-07-31T03:16:14;2.35;;;1.10;;
52494;SDS011;38405;53.212;5.660;2023-07-31T03:18:40;3.80;;;1.15;;
52494;SDS011;38405;53.212;5.660;2023-07-31T03:21:05;1.92;;;0.75;;
52494;SDS011;38405;53.212;5.660;2023-07-31T03:23:31;0.50;;;0.50;;
52494;SDS011;38405;53.212;5.660;2023-07-31T03:25:57;2.30;;;0.43;;
52494;SDS011;38405;53.212;5.660;2023-07-31T03:28:24;0.75;;;0.47;;
52494;SDS011;38405;53.212;5.660;2023-07-31T03:30:50;1.92;;;0.50;;
52494;SDS011;38405;53.212;5.660;2023-07-31T03:33:17;0.57;;;0.50;;
52494;SDS011;38405;53.212;5.660;2023-07-31T03:35:42;1.52;;;0.70;;
52494;SDS011;38405;53.212;5.660;2023-07-31T03:38:08;2.80;;;0.63;;
52494;SDS011;38405;53.212;5.660;2023-07-31T03:40:34;1.52;;;0.40;;
52494;SDS011;38405;53.212;5.660;2023-07-31T03:42:59;0.55;;;0.55;;
52494;SDS011;38405;53.212;5.660;2023-07-31T03:45:25;2.80;;;0.80;;
52494;SDS011;38405;53.212;5.660;2023-07-31T03:47:51;2.15;;;0.85;;
52494;SDS011;38405;53.212;5.660;2023-07-31T03:50:16;1.73;;;0.98;;
52494;SDS011;38405;53.212;5.660;2023-07-31T03:52:42;3.20;;;1.35;;
52494;SDS011;38405;53.212;5.660;2023-07-31T03:55:08;8.43;;;1.90;;
52494;SDS011;38405;53.212;5.660;2023-07-31T03:57:33;8.98;;;2.10;;
52494;SDS011;38405;53.212;5.660;2023-07-31T03:59:59;8.60;;;2.30;;
52494;SDS011;38405;53.212;5.660;2023-07-31T04:02:25;10.57;;;2.70;;
52494;SDS011;38405;53.212;5.660;2023-07-31T04:04:50;13.68;;;2.60;;
52494;SDS011;38405;53.212;5.660;2023-07-31T04:07:16;7.72;;;2.60;;
52494;SDS011;38405;53.212;5.660;2023-07-31T04:09:42;9.75;;;2.95;;
52494;SDS011;38405;53.212;5.660;2023-07-31T04:12:07;12.40;;;4.07;;
52494;SDS011;38405;53.212;5.660;2023-07-31T04:14:33;11.60;;;3.60;;
52494;SDS011;38405;53.212;5.660;2023-07-31T04:16:59;12.52;;;3.78;;
52494;SDS011;38405;53.212;5.660;2023-07-31T04:19:24;14.93;;;3.90;;
52494;SDS011;38405;53.212;5.660;2023-07-31T04:21:50;17.95;;;4.07;;
52494;SDS011;38405;53.212;5.660;2023-07-31T04:24:15;13.77;;;3.90;;
52494;SDS011;38405;53.212;5.660;2023-07-31T04:26:47;13.52;;;3.75;;
52494;SDS011;38405;53.212;5.660;2023-07-31T04:29:12;8.32;;;3.25;;
52494;SDS011;38405;53.212;5.660;2023-07-31T04:31:38;9.77;;;3.72;;
52494;SDS011;38405;53.212;5.660;2023-07-31T04:34:04;16.10;;;4.15;;
52494;SDS011;38405;53.212;5.660;2023-07-31T04:36:29;12.63;;;3.78;;
52494;SDS011;38405;53.212;5.660;2023-07-31T04:38:55;13.85;;;4.15;;
52494;SDS011;38405;53.212;5.660;2023-07-31T04:41:21;8.18;;;3.75;;
52494;SDS011;38405;53.212;5.660;2023-07-31T04:43:49;14.82;;;3.47;;
52494;SDS011;38405;53.212;5.660;2023-07-31T04:46:15;12.90;;;3.17;;
52494;SDS011;38405;53.212;5.660;2023-07-31T04:48:41;12.15;;;3.42;;
52494;SDS011;38405;53.212;5.660;2023-07-31T04:51:07;12.95;;;3.15;;
52494;SDS011;38405;53.212;5.660;2023-07-31T04:53:33;13.93;;;4.10;;
52494;SDS011;38405;53.212;5.660;2023-07-31T04:55:58;14.57;;;4.43;;
52494;SDS011;38405;53.212;5.660;2023-07-31T04:58:27;13.55;;;4.22;;
52494;SDS011;38405;53.212;5.660;2023-07-31T05:00:52;16.60;;;4.72;;
52494;SDS011;38405;53.212;5.660;2023-07-31T05:03:18;16.40;;;4.57;;
52494;SDS011;38405;53.212;5.660;2023-07-31T05:05:44;17.73;;;5.20;;
52494;SDS011;38405;53.212;5.660;2023-07-31T05:08:09;19.38;;;5.05;;
52494;SDS011;38405;53.212;5.660;2023-07-31T05:10:35;18.08;;;5.43;;
52494;SDS011;38405;53.212;5.660;2023-07-31T05:13:01;20.88;;;5.70;;
52494;SDS011;38405;53.212;5.660;2023-07-31T05:15:27;18.85;;;5.57;;
52494;SDS011;38405;53.212;5.660;2023-07-31T05:17:53;21.45;;;6.00;;
52494;SDS011;38405;53.212;5.660;2023-07-31T05:20:18;14.18;;;4.88;;
52494;SDS011;38405;53.212;5.660;2023-07-31T05:22:44;20.30;;;5.57;;
52494;SDS011;38405;53.212;5.660;2023-07-31T05:25:09;16.50;;;4.65;;
52494;SDS011;38405;53.212;5.660;2023-07-31T05:27:35;10.27;;;3.58;;
52494;SDS011;38405;53.212;5.660;2023-07-31T05:30:01;14.88;;;4.20;;
52494;SDS011;38405;53.212;5.660;2023-07-31T05:32:27;15.77;;;4.50;;
52494;SDS011;38405;53.212;5.660;2023-07-31T05:34:52;12.73;;;3.90;;
52494;SDS011;38405;53.212;5.660;2023-07-31T05:37:18;17.27;;;4.53;;
52494;SDS011;38405;53.212;5.660;2023-07-31T05:39:44;15.63;;;4.63;;
52494;SDS011;38405;53.212;5.660;2023-07-31T05:42:10;13.10;;;4.25;;
52494;SDS011;38405;53.212;5.660;2023-07-31T05:44:36;16.73;;;4.53;;
52494;SDS011;38405;53.212;5.660;2023-07-31T05:47:02;13.82;;;3.50;;
52494;SDS011;38405;53.212;5.660;2023-07-31T05:49:27;13.40;;;3.67;;
52494;SDS011;38405;53.212;5.660;2023-07-31T05:51:53;9.55;;;3.78;;
52494;SDS011;38405;53.212;5.660;2023-07-31T05:54:19;7.80;;;2.90;;
52494;SDS011;38405;53.212;5.660;2023-07-31T05:56:44;12.57;;;3.08;;
52494;SDS011;38405;53.212;5.660;2023-07-31T05:59:11;14.30;;;3.25;;
52494;SDS011;38405;53.212;5.660;2023-07-31T06:01:37;10.23;;;3.58;;
52494;SDS011;38405;53.212;5.660;2023-07-31T06:04:03;14.75;;;3.25;;
52494;SDS011;38405;53.212;5.660;2023-07-31T06:06:29;14.68;;;3.42;;
52494;SDS011;38405;53.212;5.660;2023-07-31T06:08:54;9.73;;;2.88;;
52494;SDS011;38405;53.212;5.660;2023-07-31T06:11:20;9.02;;;2.80;;
52494;SDS011;38405;53.212;5.660;2023-07-31T06:13:46;9.35;;;2.65;;
52494;SDS011;38405;53.212;5.660;2023-07-31T06:16:14;8.32;;;2.80;;
52494;SDS011;38405;53.212;5.660;2023-07-31T06:18:40;10.70;;;3.30;;
52494;SDS011;38405;53.212;5.660;2023-07-31T06:21:07;11.15;;;3.28;;
52494;SDS011;38405;53.212;5.660;2023-07-31T06:23:33;13.25;;;3.45;;
52494;SDS011;38405;53.212;5.660;2023-07-31T06:25:58;9.98;;;3.22;;
52494;SDS011;38405;53.212;5.660;2023-07-31T06:28:27;8.95;;;3.15;;
52494;SDS011;38405;53.212;5.660;2023-07-31T06:30:54;7.53;;;3.03;;
52494;SDS011;38405;53.212;5.660;2023-07-31T06:33:20;9.55;;;3.05;;
52494;SDS011;38405;53.212;5.660;2023-07-31T06:35:45;11.25;;;3.10;;
52494;SDS011;38405;53.212;5.660;2023-07-31T06:38:11;8.18;;;3.22;;
52494;SDS011;38405;53.212;5.660;2023-07-31T06:40:40;8.27;;;2.97;;
52494;SDS011;38405;53.212;5.660;2023-07-31T06:43:06;9.52;;;2.30;;
52494;SDS011;38405;53.212;5.660;2023-07-31T06:45:34;4.55;;;2.05;;
52494;SDS011;38405;53.212;5.660;2023-07-31T06:48:01;3.70;;;1.92;;
52494;SDS011;38405;53.212;5.660;2023-07-31T06:50:33;3.80;;;2.00;;
52494;SDS011;38405;53.212;5.660;2023-07-31T06:52:59;6.55;;;2.22;;
52494;SDS011;38405;53.212;5.660;2023-07-31T06:55:25;5.88;;;2.63;;
52494;SDS011;38405;53.212;5.660;2023-07-31T06:57:52;5.32;;;2.25;;
52494;SDS011;38405;53.212;5.660;2023-07-31T07:00:19;7.30;;;2.05;;
52494;SDS011;38405;53.212;5.660;2023-07-31T07:02:46;10.43;;;2.70;;
52494;SDS011;38405;53.212;5.660;2023-07-31T07:05:12;4.22;;;2.00;;
52494;SDS011;38405;53.212;5.660;2023-07-31T07:07:38;7.30;;;2.60;;
52494;SDS011;38405;53.212;5.660;2023-07-31T07:10:05;4.57;;;1.90;;
52494;SDS011;38405;53.212;5.660;2023-07-31T07:12:32;3.42;;;1.83;;
52494;SDS011;38405;53.212;5.660;2023-07-31T07:14:58;5.13;;;1.60;;
52494;SDS011;38405;53.212;5.660;2023-07-31T07:17:25;4.13;;;1.60;;
52494;SDS011;38405;53.212;5.660;2023-07-31T07:19:51;3.85;;;1.33;;
52494;SDS011;38405;53.212;5.660;2023-07-31T07:22:17;2.30;;;1.27;;
52494;SDS011;38405;53.212;5.660;2023-07-31T07:24:43;2.42;;;1.45;;
52494;SDS011;38405;53.212;5.660;2023-07-31T07:27:09;3.50;;;1.33;;
52494;SDS011;38405;53.212;5.660;2023-07-31T07:29:34;3.25;;;1.33;;
52494;SDS011;38405;53.212;5.660;2023-07-31T07:32:00;2.83;;;1.40;;
52494;SDS011;38405;53.212;5.660;2023-07-31T07:34:27;4.45;;;1.20;;
52494;SDS011;38405;53.212;5.660;2023-07-31T07:36:53;1.67;;;1.10;;
52494;SDS011;38405;53.212;5.660;2023-07-31T07:39:20;2.28;;;1.10;;
52494;SDS011;38405;53.212;5.660;2023-07-31T07:41:46;1.80;;;0.98;;
52494;SDS011;38405;53.212;5.660;2023-07-31T07:44:12;1.63;;;0.70;;
52494;SDS011;38405;53.212;5.660;2023-07-31T07:46:38;2.72;;;0.70;;
52494;SDS011;38405;53.212;5.660;2023-07-31T07:49:04;2.55;;;0.90;;
52494;SDS011;38405;53.212;5.660;2023-07-31T07:51:30;4.10;;;0.95;;
52494;SDS011;38405;53.212;5.660;2023-07-31T07:53:57;4.30;;;0.90;;
52494;SDS011;38405;53.212;5.660;2023-07-31T07:56:23;2.78;;;0.80;;
52494;SDS011;38405;53.212;5.660;2023-07-31T07:58:50;3.33;;;1.20;;
52494;SDS011;38405;53.212;5.660;2023-07-31T08:01:16;3.10;;;0.88;;
52494;SDS011;38405;53.212;5.660;2023-07-31T08:03:42;4.40;;;0.82;;
52494;SDS011;38405;53.212;5.660;2023-07-31T08:06:08;1.48;;;0.75;;
52494;SDS011;38405;53.212;5.660;2023-07-31T08:08:37;4.03;;;1.02;;
52494;SDS011;38405;53.212;5.660;2023-07-31T08:11:03;3.85;;;1.23;;
52494;SDS011;38405;53.212;5.660;2023-07-31T08:13:29;5.50;;;1.30;;
52494;SDS011;38405;53.212;5.660;2023-07-31T08:15:55;2.63;;;0.90;;
52494;SDS011;38405;53.212;5.660;2023-07-31T08:18:20;3.33;;;0.98;;
52494;SDS011;38405;53.212;5.660;2023-07-31T08:20:46;2.67;;;1.15;;
52494;SDS011;38405;53.212;5.660;2023-07-31T08:23:12;1.02;;;0.70;;
52494;SDS011;38405;53.212;5.660;2023-07-31T08:25:38;1.25;;;0.80;;
52494;SDS011;38405;53.212;5.660;2023-07-31T08:28:04;4.07;;;0.80;;
52494;SDS011;38405;53.212;5.660;2023-07-31T08:30:30;1.73;;;0.90;;
52494;SDS011;38405;53.212;5.660;2023-07-31T08:32:57;2.53;;;1.00;;
52494;SDS011;38405;53.212;5.660;2023-07-31T08:35:23;4.00;;;1.10;;
52494;SDS011;38405;53.212;5.660;2023-07-31T08:37:50;5.00;;;1.02;;
52494;SDS011;38405;53.212;5.660;2023-07-31T08:40:15;2.45;;;1.10;;
52494;SDS011;38405;53.212;5.660;2023-07-31T08:42:48;1.13;;;0.65;;
52494;SDS011;38405;53.212;5.660;2023-07-31T08:45:16;2.22;;;1.02;;
52494;SDS011;38405;53.212;5.660;2023-07-31T08:47:47;1.80;;;0.70;;
52494;SDS011;38405;53.212;5.660;2023-07-31T08:50:17;1.90;;;0.80;;
52494;SDS011;38405;53.212;5.660;2023-07-31T08:52:45;1.83;;;0.68;;
52494;SDS011;38405;53.212;5.660;2023-07-31T08:55:12;1.02;;;0.52;;
52494;SDS011;38405;53.212;5.660;2023-07-31T08:57:38;1.55;;;0.60;;
52494;SDS011;38405;53.212;5.660;2023-07-31T09:00:04;1.65;;;0.60;;
52494;SDS011;38405;53.212;5.660;2023-07-31T09:02:51;0.95;;;0.50;;
52494;SDS011;38405;53.212;5.660;2023-07-31T09:05:18;0.50;;;0.40;;
52494;SDS011;38405;53.212;5.660;2023-07-31T09:07:45;1.80;;;0.50;;
52494;SDS011;38405;53.212;5.660;2023-07-31T09:10:13;0.88;;;0.60;;
52494;SDS011;38405;53.212;5.660;2023-07-31T09:12:39;1.63;;;0.57;;
52494;SDS011;38405;53.212;5.660;2023-07-31T09:15:05;2.33;;;0.82;;
52494;SDS011;38405;53.212;5.660;2023-07-31T09:17:32;1.25;;;0.50;;
52494;SDS011;38405;53.212;5.660;2023-07-31T09:20:19;0.60;;;0.50;;
52494;SDS011;38405;53.212;5.660;2023-07-31T09:22:46;0.95;;;0.38;;
52494;SDS011;38405;53.212;5.660;2023-07-31T09:25:23;1.13;;;0.90;;
52494;SDS011;38405;53.212;5.660;2023-07-31T09:30:28;1.08;;;0.30;;
52494;SDS011;38405;53.212;5.660;2023-07-31T09:33:01;1.83;;;0.50;;
52494;SDS011;38405;53.212;5.660;2023-07-31T09:35:32;1.58;;;0.68;;
52494;SDS011;38405;53.212;5.660;2023-07-31T09:38:06;2.83;;;1.02;;
52494;SDS011;38405;53.212;5.660;2023-07-31T09:40:34;2.47;;;0.85;;
52494;SDS011;38405;53.212;5.660;2023-07-31T09:43:05;2.20;;;0.90;;
52494;SDS011;38405;53.212;5.660;2023-07-31T09:45:42;1.38;;;0.65;;
52494;SDS011;38405;53.212;5.660;2023-07-31T09:50:39;4.43;;;1.08;;
52494;SDS011;38405;53.212;5.660;2023-07-31T09:53:06;6.70;;;1.55;;
52494;SDS011;38405;53.212;5.660;2023-07-31T09:55:33;3.88;;;1.60;;
52494;SDS011;38405;53.212;5.660;2023-07-31T09:58:02;4.15;;;1.23;;
52494;SDS011;38405;53.212;5.660;2023-07-31T10:00:30;6.63;;;1.50;;
52494;SDS011;38405;53.212;5.660;2023-07-31T10:03:00;3.67;;;1.30;;
52494;SDS011;38405;53.212;5.660;2023-07-31T10:05:39;3.08;;;0.68;;
52494;SDS011;38405;53.212;5.660;2023-07-31T10:08:08;3.30;;;0.70;;
52494;SDS011;38405;53.212;5.660;2023-07-31T10:10:37;2.45;;;0.95;;
52494;SDS011;38405;53.212;5.660;2023-07-31T10:13:07;3.33;;;0.70;;
52494;SDS011;38405;53.212;5.660;2023-07-31T10:15:33;4.68;;;0.80;;
52494;SDS011;38405;53.212;5.660;2023-07-31T10:18:00;1.42;;;0.80;;
52494;SDS011;38405;53.212;5.660;2023-07-31T10:20:27;3.50;;;1.40;;
52494;SDS011;38405;53.212;5.660;2023-07-31T10:22:57;3.38;;;1.15;;
52494;SDS011;38405;53.212;5.660;2023-07-31T10:25:24;2.72;;;1.27;;
52494;SDS011;38405;53.212;5.660;2023-07-31T10:27:54;7.70;;;1.58;;
52494;SDS011;38405;53.212;5.660;2023-07-31T10:30:25;10.05;;;1.40;;
52494;SDS011;38405;53.212;5.660;2023-07-31T10:32:54;4.63;;;1.10;;
52494;SDS011;38405;53.212;5.660;2023-07-31T10:35:20;4.40;;;1.63;;
52494;SDS011;38405;53.212;5.660;2023-07-31T10:37:49;2.00;;;1.10;;
52494;SDS011;38405;53.212;5.660;2023-07-31T10:40:23;2.70;;;1.27;;
52494;SDS011;38405;53.212;5.660;2023-07-31T10:42:53;5.43;;;1.10;;
52494;SDS011;38405;53.212;5.660;2023-07-31T10:48:02;10.85;;;1.30;;
52494;SDS011;38405;53.212;5.660;2023-07-31T10:50:28;7.72;;;1.40;;
52494;SDS011;38405;53.212;5.660;2023-07-31T10:52:57;3.70;;;1.20;;
52494;SDS011;38405;53.212;5.660;2023-07-31T10:57:53;6.13;;;1.40;;
52494;SDS011;38405;53.212;5.660;2023-07-31T11:00:42;9.65;;;1.55;;
52494;SDS011;38405;53.212;5.660;2023-07-31T11:03:10;6.95;;;1.58;;
52494;SDS011;38405;53.212;5.660;2023-07-31T11:05:41;6.03;;;1.52;;
52494;SDS011;38405;53.212;5.660;2023-07-31T11:08:12;7.78;;;1.90;;
52494;SDS011;38405;53.212;5.660;2023-07-31T11:13:27;8.35;;;1.80;;
52494;SDS011;38405;53.212;5.660;2023-07-31T11:15:57;4.20;;;1.48;;
52494;SDS011;38405;53.212;5.660;2023-07-31T11:18:23;4.07;;;1.20;;
52494;SDS011;38405;53.212;5.660;2023-07-31T11:20:50;5.05;;;1.50;;
52494;SDS011;38405;53.212;5.660;2023-07-31T11:23:19;2.13;;;1.23;;
52494;SDS011;38405;53.212;5.660;2023-07-31T11:25:45;4.50;;;0.90;;
52494;SDS011;38405;53.212;5.660;2023-07-31T11:28:15;7.97;;;1.15;;
52494;SDS011;38405;53.212;5.660;2023-07-31T11:30:42;3.08;;;1.00;;
52494;SDS011;38405;53.212;5.660;2023-07-31T11:33:11;2.45;;;1.00;;
52494;SDS011;38405;53.212;5.660;2023-07-31T11:35:47;5.18;;;1.40;;
52494;SDS011;38405;53.212;5.660;2023-07-31T11:38:30;4.70;;;1.80;;
52494;SDS011;38405;53.212;5.660;2023-07-31T11:41:00;2.55;;;1.13;;
52494;SDS011;38405;53.212;5.660;2023-07-31T11:43:27;3.80;;;1.35;;
52494;SDS011;38405;53.212;5.660;2023-07-31T11:45:54;3.10;;;1.30;;
52494;SDS011;38405;53.212;5.660;2023-07-31T11:48:27;5.30;;;1.60;;
52494;SDS011;38405;53.212;5.660;2023-07-31T11:50:57;3.63;;;1.40;;
52494;SDS011;38405;53.212;5.660;2023-07-31T11:53:28;5.57;;;1.70;;
52494;SDS011;38405;53.212;5.660;2023-07-31T11:56:05;4.03;;;1.83;;
52494;SDS011;38405;53.212;5.660;2023-07-31T11:58:33;4.30;;;1.60;;
52494;SDS011;38405;53.212;5.660;2023-07-31T12:01:00;6.93;;;1.90;;
52494;SDS011;38405;53.212;5.660;2023-07-31T12:03:27;12.05;;;2.08;;
52494;SDS011;38405;53.212;5.660;2023-07-31T12:05:53;11.25;;;2.45;;
52494;SDS011;38405;53.212;5.660;2023-07-31T12:08:22;8.88;;;1.90;;
52494;SDS011;38405;53.212;5.660;2023-07-31T12:10:52;8.00;;;2.35;;
52494;SDS011;38405;53.212;5.660;2023-07-31T12:13:22;10.52;;;2.40;;
52494;SDS011;38405;53.212;5.660;2023-07-31T12:15:53;6.93;;;2.30;;
52494;SDS011;38405;53.212;5.660;2023-07-31T12:18:23;8.82;;;2.28;;
52494;SDS011;38405;53.212;5.660;2023-07-31T12:21:00;12.68;;;3.13;;
52494;SDS011;38405;53.212;5.660;2023-07-31T12:23:27;8.82;;;2.58;;
52494;SDS011;38405;53.212;5.660;2023-07-31T12:26:10;7.15;;;2.22;;
52494;SDS011;38405;53.212;5.660;2023-07-31T12:28:40;10.95;;;2.85;;
52494;SDS011;38405;53.212;5.660;2023-07-31T12:31:08;11.90;;;2.58;;
52494;SDS011;38405;53.212;5.660;2023-07-31T12:33:36;10.10;;;2.67;;
52494;SDS011;38405;53.212;5.660;2023-07-31T12:36:06;7.63;;;2.05;;
52494;SDS011;38405;53.212;5.660;2023-07-31T12:38:39;10.23;;;2.33;;
52494;SDS011;38405;53.212;5.660;2023-07-31T12:41:05;6.65;;;1.95;;
52494;SDS011;38405;53.212;5.660;2023-07-31T12:43:34;9.68;;;2.38;;
52494;SDS011;38405;53.212;5.660;2023-07-31T12:46:00;12.93;;;2.53;;
52494;SDS011;38405;53.212;5.660;2023-07-31T12:48:26;8.77;;;2.53;;
52494;SDS011;38405;53.212;5.660;2023-07-31T12:50:52;10.85;;;2.70;;
52494;SDS011;38405;53.212;5.660;2023-07-31T12:53:18;9.98;;;2.90;;
52494;SDS011;38405;53.212;5.660;2023-07-31T12:55:43;13.10;;;3.00;;
52494;SDS011;38405;53.212;5.660;2023-07-31T12:58:09;10.95;;;2.60;;
52494;SDS011;38405;53.212;5.660;2023-07-31T13:00:35;7.22;;;2.30;;
52494;SDS011;38405;53.212;5.660;2023-07-31T13:03:01;6.95;;;2.00;;
52494;SDS011;38405;53.212;5.660;2023-07-31T13:05:28;12.07;;;2.78;;
52494;SDS011;38405;53.212;5.660;2023-07-31T13:07:54;9.45;;;2.05;;
52494;SDS011;38405;53.212;5.660;2023-07-31T13:10:20;9.68;;;2.60;;
52494;SDS011;38405;53.212;5.660;2023-07-31T13:12:47;7.75;;;2.50;;
52494;SDS011;38405;53.212;5.660;2023-07-31T13:15:12;14.38;;;2.45;;
52494;SDS011;38405;53.212;5.660;2023-07-31T13:17:38;13.50;;;2.88;;
52494;SDS011;38405;53.212;5.660;2023-07-31T13:20:04;8.50;;;2.38;;
52494;SDS011;38405;53.212;5.660;2023-07-31T13:22:30;7.30;;;2.55;;
52494;SDS011;38405;53.212;5.660;2023-07-31T13:24:57;8.32;;;2.40;;
52494;SDS011;38405;53.212;5.660;2023-07-31T13:27:23;7.68;;;2.13;;
52494;SDS011;38405;53.212;5.660;2023-07-31T13:29:49;10.80;;;2.67;;
52494;SDS011;38405;53.212;5.660;2023-07-31T13:32:18;8.40;;;2.35;;
52494;SDS011;38405;53.212;5.660;2023-07-31T13:34:46;6.85;;;2.22;;
52494;SDS011;38405;53.212;5.660;2023-07-31T13:37:12;7.65;;;2.58;;
52494;SDS011;38405;53.212;5.660;2023-07-31T13:39:38;10.13;;;2.55;;
52494;SDS011;38405;53.212;5.660;2023-07-31T13:42:04;11.45;;;2.50;;
52494;SDS011;38405;53.212;5.660;2023-07-31T13:44:33;10.60;;;2.50;;
52494;SDS011;38405;53.212;5.660;2023-07-31T13:47:02;15.55;;;3.03;;
52494;SDS011;38405;53.212;5.660;2023-07-31T13:49:28;13.43;;;3.08;;
52494;SDS011;38405;53.212;5.660;2023-07-31T13:51:54;17.23;;;3.03;;
52494;SDS011;38405;53.212;5.660;2023-07-31T13:54:20;10.52;;;3.25;;
52494;SDS011;38405;53.212;5.660;2023-07-31T13:56:47;9.32;;;2.85;;
52494;SDS011;38405;53.212;5.660;2023-07-31T13:59:12;10.32;;;3.30;;
52494;SDS011;38405;53.212;5.660;2023-07-31T14:01:40;10.93;;;3.20;;
52494;SDS011;38405;53.212;5.660;2023-07-31T14:04:05;16.15;;;3.60;;
52494;SDS011;38405;53.212;5.660;2023-07-31T14:06:31;13.88;;;3.20;;
52494;SDS011;38405;53.212;5.660;2023-07-31T14:08:57;9.95;;;3.20;;
52494;SDS011;38405;53.212;5.660;2023-07-31T14:11:22;7.88;;;2.70;;
52494;SDS011;38405;53.212;5.660;2023-07-31T14:13:49;11.07;;;3.60;;
52494;SDS011;38405;53.212;5.660;2023-07-31T14:16:15;10.43;;;2.38;;
52494;SDS011;38405;53.212;5.660;2023-07-31T14:18:41;8.73;;;2.88;;
52494;SDS011;38405;53.212;5.660;2023-07-31T14:21:07;12.05;;;3.28;;
52494;SDS011;38405;53.212;5.660;2023-07-31T14:23:33;11.52;;;3.28;;
52494;SDS011;38405;53.212;5.660;2023-07-31T14:25:59;9.68;;;2.35;;
52494;SDS011;38405;53.212;5.660;2023-07-31T14:28:25;10.77;;;2.78;;
52494;SDS011;38405;53.212;5.660;2023-07-31T14:30:51;13.15;;;2.83;;
52494;SDS011;38405;53.212;5.660;2023-07-31T14:33:16;10.90;;;3.08;;
52494;SDS011;38405;53.212;5.660;2023-07-31T14:35:42;16.75;;;2.90;;
52494;SDS011;38405;53.212;5.660;2023-07-31T14:38:08;13.82;;;2.90;;
52494;SDS011;38405;53.212;5.660;2023-07-31T14:40:34;12.25;;;2.90;;
52494;SDS011;38405;53.212;5.660;2023-07-31T14:42:59;10.27;;;3.03;;
52494;SDS011;38405;53.212;5.660;2023-07-31T14:45:25;14.23;;;2.97;;
52494;SDS011;38405;53.212;5.660;2023-07-31T14:47:50;9.63;;;2.40;;
52494;SDS011;38405;53.212;5.660;2023-07-31T14:50:16;12.07;;;3.05;;
52494;SDS011;38405;53.212;5.660;2023-07-31T14:52:42;14.48;;;3.25;;
52494;SDS011;38405;53.212;5.660;2023-07-31T14:55:07;12.55;;;3.08;;
52494;SDS011;38405;53.212;5.660;2023-07-31T14:57:34;12.63;;;2.97;;
52494;SDS011;38405;53.212;5.660;2023-07-31T15:00:00;16.48;;;2.95;;
52494;SDS011;38405;53.212;5.660;2023-07-31T15:02:26;15.52;;;2.75;;
52494;SDS011;38405;53.212;5.660;2023-07-31T15:04:52;12.77;;;2.58;;